Time;durP1;ratioP1;P1;durP2;ratioP2;P2;SDS_P1;SDS_P2;PMS_P1;PMS_P2;Temp;Humidity;BMP_temperature;BMP_pressure;BME280_temperature;BME280_humidity;BME280_pressure;Samples;Min_cycle;Max_cycle;Signal;HPM_P1;HPM_P2
2022/12/08 00:01:20;;;;;;;;;;;21.60;99.90;;;;;;5055329;28;19999;-63
2022/12/08 00:03:47;;;;;;;;;;;21.70;99.90;;;;;;5055380;28;19908;-62
2022/12/08 00:09:23;;;;;;;;;;;21.50;99.90;;;;;;5054541;28;20034;-64
2022/12/08 00:11:50;;;;;;;;;;;21.60;99.90;;;;;;5055010;28;19917;-64
2022/12/08 00:14:17;;;;;;;;;;;21.30;99.90;;;;;;5054103;28;19925;-65
2022/12/08 00:16:43;;;;;;;;;;;21.40;99.90;;;;;;5055013;28;19919;-64
2022/12/08 00:19:10;;;;;;;;;;;21.30;99.90;;;;;;5054242;28;19924;-65
2022/12/08 00:21:37;;;;;;;;;;;21.40;99.90;;;;;;5052294;28;20004;-64
2022/12/08 00:24:04;;;;;;;;;;;21.60;99.90;;;;;;5054941;28;20015;-67
2022/12/08 00:26:30;;;;;;;;;;;21.70;99.90;;;;;;5054163;28;19913;-66
2022/12/08 00:28:57;;;;;;;;;;;21.80;99.90;;;;;;5054878;28;19967;-65
2022/12/08 00:31:24;;;;;;;;;;;22.00;99.90;;;;;;5053771;28;19920;-65
2022/12/08 00:33:50;;;;;;;;;;;22.30;99.70;;;;;;5054724;28;20363;-65
2022/12/08 00:36:17;;;;;;;;;;;22.10;99.20;;;;;;5044693;28;19948;-65
2022/12/08 00:38:47;;;;;;;;;;;22.30;99.20;;;;;;5038449;28;20356;-64
2022/12/08 00:41:18;;;;;;;;;;;22.00;99.20;;;;;;5034649;28;19913;-67
2022/12/08 00:43:45;;;;;;;;;;;22.10;99.40;;;;;;5049928;28;19913;-65
2022/12/08 00:46:11;;;;;;;;;;;22.20;99.00;;;;;;5053380;28;19909;-65
2022/12/08 00:48:38;;;;;;;;;;;22.10;98.80;;;;;;5054384;28;19976;-64
2022/12/08 00:51:05;;;;;;;;;;;21.70;99.40;;;;;;5053219;28;19974;-65
2022/12/08 00:53:31;;;;;;;;;;;22.10;99.20;;;;;;5054301;28;19916;-64
2022/12/08 00:55:58;;;;;;;;;;;22.30;99.00;;;;;;5053257;28;19919;-65
2022/12/08 00:58:25;;;;;;;;;;;22.90;97.90;;;;;;5054242;28;19928;-67
2022/12/08 01:00:52;;;;;;;;;;;23.50;97.10;;;;;;5053011;28;19919;-66
2022/12/08 01:03:18;;;;;;;;;;;23.90;97.10;;;;;;5053228;28;19912;-67
2022/12/08 01:05:45;;;;;;;;;;;23.90;96.70;;;;;;5053842;28;20368;-67
2022/12/08 01:08:12;;;;;;;;;;;23.70;96.60;;;;;;5053282;28;20252;-68
2022/12/08 01:10:38;;;;;;;;;;;24.00;96.30;;;;;;5054253;28;19952;-66
2022/12/08 01:13:05;;;;;;;;;;;24.20;95.70;;;;;;5053179;28;19924;-66
2022/12/08 01:15:32;;;;;;;;;;;23.90;96.30;;;;;;5052837;28;19912;-66
2022/12/08 01:17:59;;;;;;;;;;;23.80;96.30;;;;;;5054003;28;19967;-67
2022/12/08 01:20:25;;;;;;;;;;;23.70;96.10;;;;;;5052820;28;20011;-66
2022/12/08 01:22:52;;;;;;;;;;;23.70;96.10;;;;;;5053662;28;19916;-65
2022/12/08 01:25:19;;;;;;;;;;;23.90;95.70;;;;;;5053031;28;19948;-65
2022/12/08 01:27:45;;;;;;;;;;;23.80;95.40;;;;;;5052791;28;19919;-66
2022/12/08 01:30:12;;;;;;;;;;;24.00;95.70;;;;;;5053444;28;20367;-66
2022/12/08 01:32:39;;;;;;;;;;;24.90;94.80;;;;;;5051938;28;19921;-66
2022/12/08 01:35:06;;;;;;;;;;;25.20;93.80;;;;;;5053418;28;19909;-66
2022/12/08 01:37:32;;;;;;;;;;;24.50;94.80;;;;;;5052597;28;19920;-65
2022/12/08 01:39:59;;;;;;;;;;;24.30;94.50;;;;;;5053669;28;19909;-65
2022/12/08 01:42:26;;;;;;;;;;;24.00;95.10;;;;;;5044728;28;19977;-66
2022/12/08 01:45:03;;;;;;;;;;;23.60;96.20;;;;;;5052207;28;19913;-65
2022/12/08 01:47:32;;;;;;;;;;;23.40;96.10;;;;;;5051327;28;19913;-65
2022/12/08 01:49:59;;;;;;;;;;;22.90;96.60;;;;;;5052665;28;19928;-66
2022/12/08 01:52:28;;;;;;;;;;;22.40;96.50;;;;;;5053370;28;19927;-65
2022/12/08 01:55:03;;;;;;;;;;;22.30;97.30;;;;;;5039693;28;19917;-65
2022/12/08 01:57:33;;;;;;;;;;;22.40;96.60;;;;;;5048076;28;19921;-65
2022/12/08 02:00:02;;;;;;;;;;;22.20;96.90;;;;;;5053303;28;19916;-65
2022/12/08 02:02:31;;;;;;;;;;;22.10;97.00;;;;;;5046625;28;19917;-66
2022/12/08 02:04:58;;;;;;;;;;;22.30;97.00;;;;;;5052965;28;20415;-66
2022/12/08 02:07:25;;;;;;;;;;;22.30;96.90;;;;;;5051486;28;19913;-65
2022/12/08 02:09:52;;;;;;;;;;;22.10;97.10;;;;;;5053078;28;20385;-66
2022/12/08 02:12:19;;;;;;;;;;;22.20;96.90;;;;;;5052085;28;20020;-67
2022/12/08 02:14:46;;;;;;;;;;;22.00;97.10;;;;;;5053127;28;19979;-66
2022/12/08 02:17:27;;;;;;;;;;;22.10;96.90;;;;;;5052651;28;19913;-66
2022/12/08 02:20:09;;;;;;;;;;;22.20;96.70;;;;;;5052491;28;19951;-65
2022/12/08 02:22:35;;;;;;;;;;;22.20;96.40;;;;;;5052209;28;19959;-67
2022/12/08 02:25:11;;;;;;;;;;;22.20;96.90;;;;;;5041295;28;19920;-66
2022/12/08 02:27:48;;;;;;;;;;;22.00;96.70;;;;;;5033199;28;19910;-65
2022/12/08 02:30:41;;;;;;;;;;;21.90;96.80;;;;;;5044917;28;20379;-65
2022/12/08 02:33:13;;;;;;;;;;;21.90;96.90;;;;;;5052741;28;19919;-68
2022/12/08 02:35:48;;;;;;;;;;;21.90;96.90;;;;;;5052182;28;19913;-66
2022/12/08 02:38:27;;;;;;;;;;;21.80;96.60;;;;;;5052449;28;19919;-65
2022/12/08 02:41:16;;;;;;;;;;;21.80;96.50;;;;;;5051979;28;19917;-66
2022/12/08 02:44:08;;;;;;;;;;;21.80;96.80;;;;;;5053213;28;19909;-66
2022/12/08 02:46:39;;;;;;;;;;;21.90;96.60;;;;;;5023766;28;20318;-67
2022/12/08 02:49:06;;;;;;;;;;;21.80;96.40;;;;;;5055467;28;19939;-66
2022/12/08 02:51:33;;;;;;;;;;;21.70;96.40;;;;;;5056619;28;19909;-66
2022/12/08 02:54:00;;;;;;;;;;;21.50;96.40;;;;;;5054455;28;19921;-67
2022/12/08 02:56:37;;;;;;;;;;;21.30;96.70;;;;;;5056593;28;20043;-67
2022/12/08 02:59:03;;;;;;;;;;;21.40;96.80;;;;;;5054303;28;20143;-66
2022/12/08 03:01:30;;;;;;;;;;;21.50;96.80;;;;;;5054744;28;19936;-66
2022/12/08 03:04:07;;;;;;;;;;;21.30;96.70;;;;;;5055864;28;19909;-67
2022/12/08 03:06:39;;;;;;;;;;;21.20;96.90;;;;;;5055593;28;19967;-67
2022/12/08 03:09:06;;;;;;;;;;;21.40;96.90;;;;;;5056130;28;19912;-66
2022/12/08 03:11:48;;;;;;;;;;;21.40;97.10;;;;;;5055511;28;19909;-66
2022/12/08 03:14:16;;;;;;;;;;;21.60;96.10;;;;;;5056098;28;20007;-67
2022/12/08 03:16:45;;;;;;;;;;;21.60;96.00;;;;;;5055328;28;19912;-67
2022/12/08 03:19:23;;;;;;;;;;;21.60;96.10;;;;;;5055412;28;19959;-67
2022/12/08 03:21:52;;;;;;;;;;;21.60;96.30;;;;;;5056212;28;19963;-66
2022/12/08 03:24:22;;;;;;;;;;;21.30;96.80;;;;;;5055124;28;19924;-67
2022/12/08 03:27:02;;;;;;;;;;;21.50;96.00;;;;;;5054983;28;19956;-65
2022/12/08 03:29:29;;;;;;;;;;;21.40;96.40;;;;;;5055921;28;19980;-66
2022/12/08 03:31:58;;;;;;;;;;;21.50;96.40;;;;;;5055063;28;19975;-67
2022/12/08 03:34:27;;;;;;;;;;;21.50;96.20;;;;;;5055763;28;19917;-68
2022/12/08 03:36:54;;;;;;;;;;;21.40;96.40;;;;;;5054872;28;19916;-66
2022/12/08 03:39:21;;;;;;;;;;;21.50;96.30;;;;;;5055883;28;20334;-67
2022/12/08 03:41:47;;;;;;;;;;;21.60;96.10;;;;;;5054969;28;19913;-67
2022/12/08 03:44:14;;;;;;;;;;;21.50;95.90;;;;;;5054736;28;19917;-65
2022/12/08 03:46:42;;;;;;;;;;;21.20;96.20;;;;;;5053514;28;20404;-67
2022/12/08 03:49:08;;;;;;;;;;;21.50;96.60;;;;;;5046259;28;19913;-66
2022/12/08 03:51:35;;;;;;;;;;;21.30;96.10;;;;;;5046156;28;20499;-67
2022/12/08 03:54:02;;;;;;;;;;;21.30;96.20;;;;;;5046966;28;19920;-67
2022/12/08 03:56:30;;;;;;;;;;;21.50;95.90;;;;;;5044912;28;19936;-66
2022/12/08 03:58:57;;;;;;;;;;;21.40;95.30;;;;;;5046171;28;19913;-67
2022/12/08 04:01:24;;;;;;;;;;;21.60;95.00;;;;;;5045887;28;20402;-67
2022/12/08 04:03:51;;;;;;;;;;;21.50;95.30;;;;;;5046928;28;19916;-68
2022/12/08 04:06:17;;;;;;;;;;;21.40;94.90;;;;;;5046099;28;19994;-67
2022/12/08 04:08:44;;;;;;;;;;;21.40;95.00;;;;;;5046627;28;19916;-68
2022/12/08 04:11:11;;;;;;;;;;;21.60;95.30;;;;;;5045487;28;19913;-66
2022/12/08 04:13:39;;;;;;;;;;;21.50;95.10;;;;;;5046217;28;19935;-68
2022/12/08 04:16:06;;;;;;;;;;;21.40;94.90;;;;;;5044673;28;19960;-68
2022/12/08 04:18:34;;;;;;;;;;;21.60;94.60;;;;;;5046536;28;19913;-65
2022/12/08 04:21:01;;;;;;;;;;;21.70;94.10;;;;;;5046107;28;19913;-66
2022/12/08 04:23:27;;;;;;;;;;;21.70;94.60;;;;;;5045671;28;19917;-66
2022/12/08 04:25:54;;;;;;;;;;;21.70;94.80;;;;;;5045198;28;19920;-66
2022/12/08 04:28:21;;;;;;;;;;;21.70;94.30;;;;;;5028021;28;20655;-64
2022/12/08 04:30:48;;;;;;;;;;;21.80;94.10;;;;;;5045279;28;19993;-65
2022/12/08 04:33:16;;;;;;;;;;;21.70;93.80;;;;;;5045495;28;20493;-65
2022/12/08 04:35:43;;;;;;;;;;;21.50;94.10;;;;;;5045258;28;20450;-64
2022/12/08 04:38:10;;;;;;;;;;;21.30;94.00;;;;;;5045046;28;19967;-64
2022/12/08 04:40:36;;;;;;;;;;;21.10;94.00;;;;;;5045168;28;20356;-64
2022/12/08 04:43:04;;;;;;;;;;;21.40;94.50;;;;;;5045281;28;19913;-66
2022/12/08 04:45:32;;;;;;;;;;;21.60;94.70;;;;;;5044973;28;19917;-67
2022/12/08 04:47:59;;;;;;;;;;;21.50;94.50;;;;;;5044656;28;20426;-67
2022/12/08 04:50:26;;;;;;;;;;;21.50;94.00;;;;;;5045150;28;19913;-63
2022/12/08 04:52:52;;;;;;;;;;;21.30;94.10;;;;;;5044605;28;19924;-65
2022/12/08 04:55:19;;;;;;;;;;;21.10;94.10;;;;;;5045506;28;19919;-66
2022/12/08 04:57:46;;;;;;;;;;;21.00;94.40;;;;;;5044649;28;19925;-68
2022/12/08 05:00:13;;;;;;;;;;;20.80;94.20;;;;;;5046346;28;19920;-64
2022/12/08 05:02:39;;;;;;;;;;;20.70;94.30;;;;;;5037054;28;19921;-64
2022/12/08 05:05:06;;;;;;;;;;;20.90;94.30;;;;;;5033920;28;19960;-64
2022/12/08 05:07:33;;;;;;;;;;;21.00;94.30;;;;;;5048788;28;19963;-65
2022/12/08 05:10:00;;;;;;;;;;;20.80;94.50;;;;;;5053699;28;19915;-65
2022/12/08 05:12:26;;;;;;;;;;;20.90;94.20;;;;;;5053065;28;19913;-67
2022/12/08 05:14:53;;;;;;;;;;;21.00;93.70;;;;;;5053708;28;19920;-68
2022/12/08 05:17:20;;;;;;;;;;;20.90;94.40;;;;;;5053024;28;20016;-67
2022/12/08 05:19:47;;;;;;;;;;;21.20;94.00;;;;;;5053919;28;19909;-67
2022/12/08 05:22:13;;;;;;;;;;;21.10;93.80;;;;;;5051818;28;20003;-66
2022/12/08 05:24:40;;;;;;;;;;;21.00;94.00;;;;;;5053455;28;19916;-66
2022/12/08 05:27:08;;;;;;;;;;;21.00;94.10;;;;;;5052575;28;19920;-67
2022/12/08 05:29:35;;;;;;;;;;;20.90;94.40;;;;;;5053550;28;19916;-67
2022/12/08 05:32:01;;;;;;;;;;;20.90;94.60;;;;;;5052841;28;19940;-67
2022/12/08 05:34:28;;;;;;;;;;;20.90;94.70;;;;;;5053537;28;19924;-67
2022/12/08 05:36:55;;;;;;;;;;;21.00;94.20;;;;;;5052251;28;20260;-66
2022/12/08 05:39:21;;;;;;;;;;;21.00;94.00;;;;;;5053092;28;19909;-66
2022/12/08 05:41:48;;;;;;;;;;;21.00;94.30;;;;;;5052773;28;19913;-67
2022/12/08 05:44:15;;;;;;;;;;;20.90;94.40;;;;;;5053271;28;20331;-68
2022/12/08 05:46:42;;;;;;;;;;;20.90;94.10;;;;;;5052817;28;19913;-67
2022/12/08 05:49:08;;;;;;;;;;;20.80;94.10;;;;;;5052452;28;20390;-67
2022/12/08 05:51:35;;;;;;;;;;;20.90;94.50;;;;;;5051442;28;19908;-68
2022/12/08 05:54:02;;;;;;;;;;;21.00;95.00;;;;;;5050131;28;19987;-67
2022/12/08 05:56:29;;;;;;;;;;;20.70;93.90;;;;;;5050267;28;19940;-68
2022/12/08 05:58:55;;;;;;;;;;;20.60;94.40;;;;;;5050798;28;19969;-68
2022/12/08 06:01:23;;;;;;;;;;;20.60;94.20;;;;;;5050542;28;19913;-68
2022/12/08 06:03:50;;;;;;;;;;;20.60;94.40;;;;;;5050783;28;20390;-67
2022/12/08 06:06:17;;;;;;;;;;;20.60;94.60;;;;;;5050251;28;19924;-66
2022/12/08 06:08:44;;;;;;;;;;;20.60;94.40;;;;;;5050155;28;19956;-67
2022/12/08 06:11:17;;;;;;;;;;;20.50;94.60;;;;;;5049922;28;19928;-67
2022/12/08 06:13:44;;;;;;;;;;;20.30;94.20;;;;;;5049960;28;19929;-66
2022/12/08 06:16:11;;;;;;;;;;;20.30;94.70;;;;;;5050855;28;19912;-67
2022/12/08 06:18:37;;;;;;;;;;;20.20;94.50;;;;;;5050822;28;19920;-68
2022/12/08 06:21:05;;;;;;;;;;;20.30;94.50;;;;;;5057517;28;20372;-68
2022/12/08 06:23:32;;;;;;;;;;;20.30;94.60;;;;;;5056824;28;21763;-68
2022/12/08 06:26:06;;;;;;;;;;;20.40;94.40;;;;;;5056466;28;19948;-66
2022/12/08 06:28:32;;;;;;;;;;;20.30;94.40;;;;;;5055870;28;20359;-67
2022/12/08 06:30:59;;;;;;;;;;;20.20;94.70;;;;;;5056979;28;20016;-67
2022/12/08 06:33:26;;;;;;;;;;;20.30;94.20;;;;;;5056574;28;19925;-67
2022/12/08 06:35:52;;;;;;;;;;;20.30;94.30;;;;;;5056015;28;19913;-67
2022/12/08 06:38:19;;;;;;;;;;;20.30;93.90;;;;;;5056807;28;19913;-68
2022/12/08 06:40:52;;;;;;;;;;;20.20;94.00;;;;;;5043897;28;19938;-66
2022/12/08 06:43:18;;;;;;;;;;;20.10;94.20;;;;;;5036605;28;20027;-67
2022/12/08 06:45:45;;;;;;;;;;;20.20;94.30;;;;;;5047423;28;19912;-67
2022/12/08 06:48:12;;;;;;;;;;;20.30;94.70;;;;;;5056706;28;20341;-67
2022/12/08 06:50:38;;;;;;;;;;;20.40;94.20;;;;;;5055854;28;20016;-67
2022/12/08 06:53:05;;;;;;;;;;;20.40;93.70;;;;;;5055754;28;19920;-66
2022/12/08 06:55:32;;;;;;;;;;;20.20;93.80;;;;;;5053990;28;19916;-67
2022/12/08 06:57:59;;;;;;;;;;;20.10;93.60;;;;;;5049865;28;19932;-65
2022/12/08 07:00:26;;;;;;;;;;;20.00;93.70;;;;;;5050944;28;19919;-66
2022/12/08 07:02:53;;;;;;;;;;;20.00;94.00;;;;;;5049446;28;20711;-65
2022/12/08 07:05:20;;;;;;;;;;;20.10;93.90;;;;;;5049800;28;20376;-66
2022/12/08 07:07:46;;;;;;;;;;;20.20;94.20;;;;;;5049333;28;20291;-67
2022/12/08 07:10:13;;;;;;;;;;;20.20;94.10;;;;;;5050325;28;19919;-66
2022/12/08 07:12:44;;;;;;;;;;;20.10;94.10;;;;;;5048874;28;20222;-67
2022/12/08 07:15:11;;;;;;;;;;;20.10;94.10;;;;;;5050681;28;19935;-68
2022/12/08 07:17:37;;;;;;;;;;;20.00;94.50;;;;;;5049504;28;19917;-67
2022/12/08 07:20:04;;;;;;;;;;;20.00;94.80;;;;;;5050413;28;19917;-67
2022/12/08 07:22:31;;;;;;;;;;;19.90;95.20;;;;;;5049144;28;19925;-67
2022/12/08 07:24:58;;;;;;;;;;;20.10;95.30;;;;;;5050199;28;19956;-66
2022/12/08 07:27:24;;;;;;;;;;;20.00;95.20;;;;;;5049345;28;20375;-67
2022/12/08 07:29:51;;;;;;;;;;;19.90;95.40;;;;;;5049589;28;20427;-67
2022/12/08 07:32:18;;;;;;;;;;;19.90;95.80;;;;;;5045502;28;19924;-65
2022/12/08 07:34:44;;;;;;;;;;;19.90;95.80;;;;;;5046333;28;19921;-66
2022/12/08 07:37:11;;;;;;;;;;;20.00;95.20;;;;;;5045746;28;20375;-68
2022/12/08 07:39:38;;;;;;;;;;;19.90;94.90;;;;;;5046648;28;20300;-67
2022/12/08 07:42:04;;;;;;;;;;;19.80;96.30;;;;;;5051614;28;19996;-66
2022/12/08 07:44:31;;;;;;;;;;;19.80;95.30;;;;;;5051764;28;19916;-64
2022/12/08 07:46:58;;;;;;;;;;;19.80;95.00;;;;;;5050475;28;20402;-65
2022/12/08 07:49:24;;;;;;;;;;;19.70;95.50;;;;;;5050385;28;20370;-68
2022/12/08 07:51:51;;;;;;;;;;;19.80;95.30;;;;;;5051603;28;19962;-68
2022/12/08 07:54:18;;;;;;;;;;;19.70;95.00;;;;;;5050892;28;19922;-67
2022/12/08 07:56:44;;;;;;;;;;;19.70;95.70;;;;;;5051530;28;19935;-67
2022/12/08 07:59:11;;;;;;;;;;;19.70;95.20;;;;;;5050779;28;19913;-65
2022/12/08 08:01:39;;;;;;;;;;;19.60;95.50;;;;;;5051709;28;19913;-66
2022/12/08 08:04:06;;;;;;;;;;;19.70;95.50;;;;;;5052377;28;19948;-65
2022/12/08 08:06:33;;;;;;;;;;;19.60;95.30;;;;;;5053027;28;19908;-65
2022/12/08 08:09:00;;;;;;;;;;;19.60;95.50;;;;;;5050754;28;19917;-67
2022/12/08 08:11:27;;;;;;;;;;;19.50;94.70;;;;;;5054443;28;19913;-67
2022/12/08 08:13:53;;;;;;;;;;;19.40;94.80;;;;;;5053875;28;19924;-66
2022/12/08 08:16:20;;;;;;;;;;;19.30;94.70;;;;;;5055084;28;19916;-67
2022/12/08 08:18:47;;;;;;;;;;;19.30;94.50;;;;;;5054528;28;20009;-67
2022/12/08 08:21:14;;;;;;;;;;;19.20;94.90;;;;;;5054085;28;20025;-67
2022/12/08 08:23:41;;;;;;;;;;;19.20;94.90;;;;;;5053812;28;20001;-67
2022/12/08 08:26:08;;;;;;;;;;;19.20;94.80;;;;;;5054772;28;19944;-66
2022/12/08 08:28:34;;;;;;;;;;;19.20;95.00;;;;;;5053743;28;19917;-66
2022/12/08 08:31:01;;;;;;;;;;;19.20;95.00;;;;;;5054127;28;20727;-67
2022/12/08 08:33:28;;;;;;;;;;;19.20;95.20;;;;;;5053609;28;19921;-66
2022/12/08 08:35:55;;;;;;;;;;;19.20;95.20;;;;;;5053414;28;19913;-66
2022/12/08 08:38:21;;;;;;;;;;;19.20;95.30;;;;;;5053206;28;19920;-67
2022/12/08 08:40:48;;;;;;;;;;;19.10;95.40;;;;;;5054101;28;20003;-67
2022/12/08 08:43:30;;;;;;;;;;;19.10;95.00;;;;;;5052867;28;19913;-66
2022/12/08 08:45:58;;;;;;;;;;;19.00;94.70;;;;;;5053408;28;19944;-66
2022/12/08 08:48:25;;;;;;;;;;;19.00;95.10;;;;;;5053183;28;19912;-66
2022/12/08 08:50:52;;;;;;;;;;;19.00;95.10;;;;;;5054043;28;19913;-65
2022/12/08 08:53:19;;;;;;;;;;;19.00;95.40;;;;;;5053780;28;20409;-67
2022/12/08 08:55:45;;;;;;;;;;;19.00;95.70;;;;;;5053865;28;19916;-66
2022/12/08 08:58:12;;;;;;;;;;;19.00;95.80;;;;;;5052010;28;19925;-67
2022/12/08 09:00:39;;;;;;;;;;;19.00;96.00;;;;;;5053059;28;19913;-66
2022/12/08 09:03:06;;;;;;;;;;;18.90;95.90;;;;;;5053529;28;19936;-66
2022/12/08 09:05:33;;;;;;;;;;;18.80;95.80;;;;;;5052799;28;19956;-66
2022/12/08 09:07:59;;;;;;;;;;;18.90;95.90;;;;;;5052335;28;19908;-66
2022/12/08 09:10:26;;;;;;;;;;;18.80;96.20;;;;;;5052866;28;19913;-66
2022/12/08 09:12:53;;;;;;;;;;;18.90;96.20;;;;;;5053081;28;19917;-66
2022/12/08 09:15:20;;;;;;;;;;;18.90;96.20;;;;;;5052694;28;19920;-66
2022/12/08 09:17:47;;;;;;;;;;;18.80;96.40;;;;;;5052794;28;19995;-65
2022/12/08 09:20:13;;;;;;;;;;;18.70;96.40;;;;;;5051379;28;19909;-66
2022/12/08 09:22:40;;;;;;;;;;;18.80;96.60;;;;;;5051544;28;19918;-67
2022/12/08 09:25:07;;;;;;;;;;;18.90;96.60;;;;;;5051893;28;19909;-67
2022/12/08 09:27:34;;;;;;;;;;;18.70;96.40;;;;;;5049618;28;20382;-66
2022/12/08 09:30:00;;;;;;;;;;;18.70;96.60;;;;;;5052691;28;19908;-67
2022/12/08 09:32:27;;;;;;;;;;;18.70;96.50;;;;;;5051456;28;19956;-67
2022/12/08 09:34:54;;;;;;;;;;;18.80;96.50;;;;;;5053031;28;20043;-65
2022/12/08 09:37:20;;;;;;;;;;;18.60;96.40;;;;;;5052567;28;19951;-65
2022/12/08 09:39:47;;;;;;;;;;;18.60;96.40;;;;;;5053358;28;19978;-64
2022/12/08 09:42:19;;;;;;;;;;;18.60;96.60;;;;;;5052552;28;19923;-64
2022/12/08 09:45:00;;;;;;;;;;;18.60;96.60;;;;;;5053261;28;19909;-64
2022/12/08 09:47:28;;;;;;;;;;;18.60;96.70;;;;;;5052005;28;19952;-65
2022/12/08 09:50:07;;;;;;;;;;;18.60;96.80;;;;;;5053141;28;19948;-64
2022/12/08 09:52:38;;;;;;;;;;;18.50;96.90;;;;;;5052242;28;19967;-65
2022/12/08 09:55:11;;;;;;;;;;;18.60;96.90;;;;;;5052218;28;19917;-64
2022/12/08 09:57:38;;;;;;;;;;;18.50;97.10;;;;;;5051173;28;20398;-64
2022/12/08 10:00:05;;;;;;;;;;;18.50;97.30;;;;;;5051272;28;19917;-65
2022/12/08 10:02:32;;;;;;;;;;;18.60;97.40;;;;;;5053327;28;19948;-64
2022/12/08 10:04:59;;;;;;;;;;;18.60;97.90;;;;;;5052055;28;19936;-64
2022/12/08 10:07:46;;;;;;;;;;;18.60;97.70;;;;;;5053092;28;19948;-65
2022/12/08 10:10:22;;;;;;;;;;;18.70;97.60;;;;;;5051930;28;20036;-65
2022/12/08 10:13:07;;;;;;;;;;;18.60;97.60;;;;;;5051526;28;19921;-63
2022/12/08 10:15:33;;;;;;;;;;;18.60;97.30;;;;;;5047456;28;20322;-64
2022/12/08 10:18:01;;;;;;;;;;;18.60;97.60;;;;;;5043568;28;19919;-64
2022/12/08 10:20:38;;;;;;;;;;;18.60;97.50;;;;;;5044239;28;20055;-65
2022/12/08 10:23:08;;;;;;;;;;;18.60;97.40;;;;;;5026459;28;20431;-64
2022/12/08 10:25:37;;;;;;;;;;;18.60;97.20;;;;;;5032878;28;20378;-65
2022/12/08 10:28:04;;;;;;;;;;;18.60;97.20;;;;;;5024944;28;19917;-65
2022/12/08 10:30:31;;;;;;;;;;;18.60;97.10;;;;;;5044178;28;19970;-64
2022/12/08 10:32:58;;;;;;;;;;;18.60;97.00;;;;;;5043407;28;19927;-64
2022/12/08 10:35:24;;;;;;;;;;;18.60;97.20;;;;;;5044231;28;19952;-65
2022/12/08 10:37:58;;;;;;;;;;;18.60;97.20;;;;;;5042998;28;19919;-64
2022/12/08 10:40:33;;;;;;;;;;;18.60;97.50;;;;;;5043748;28;19926;-66
2022/12/08 10:43:01;;;;;;;;;;;18.60;97.60;;;;;;5042585;28;19963;-67
2022/12/08 10:45:28;;;;;;;;;;;18.70;97.90;;;;;;5043885;28;20441;-65
2022/12/08 10:48:01;;;;;;;;;;;18.60;98.00;;;;;;5043154;28;20329;-66
2022/12/08 10:50:28;;;;;;;;;;;18.60;98.00;;;;;;5044143;28;19923;-65
2022/12/08 10:53:00;;;;;;;;;;;18.60;98.20;;;;;;5042361;28;20393;-64
2022/12/08 10:55:27;;;;;;;;;;;18.50;98.20;;;;;;5042189;28;20015;-64
2022/12/08 10:57:54;;;;;;;;;;;18.50;98.60;;;;;;5043616;28;19928;-67
2022/12/08 11:00:23;;;;;;;;;;;18.50;98.60;;;;;;5043220;28;19916;-67
2022/12/08 11:02:55;;;;;;;;;;;18.50;98.30;;;;;;5043679;28;19912;-66
2022/12/08 11:05:23;;;;;;;;;;;18.40;98.20;;;;;;5044729;28;19968;-65
2022/12/08 11:07:50;;;;;;;;;;;18.50;98.20;;;;;;5046397;28;20379;-65
2022/12/08 11:10:18;;;;;;;;;;;18.50;98.20;;;;;;5027879;28;19957;-66
2022/12/08 11:12:44;;;;;;;;;;;18.50;98.00;;;;;;5027198;28;19921;-64
2022/12/08 11:15:15;;;;;;;;;;;18.40;97.80;;;;;;5045091;28;19947;-66
2022/12/08 11:17:44;;;;;;;;;;;18.40;98.00;;;;;;5046464;28;20011;-65
2022/12/08 11:20:11;;;;;;;;;;;18.30;98.20;;;;;;5047232;28;19923;-67
2022/12/08 11:22:38;;;;;;;;;;;18.20;98.40;;;;;;5046247;28;19924;-65
2022/12/08 11:25:09;;;;;;;;;;;18.30;98.50;;;;;;5046200;28;19921;-65
2022/12/08 11:27:42;;;;;;;;;;;18.20;98.50;;;;;;5047000;28;20391;-65
2022/12/08 11:30:27;;;;;;;;;;;18.20;98.60;;;;;;5046149;28;19921;-66
2022/12/08 11:33:00;;;;;;;;;;;18.20;98.60;;;;;;5027287;28;19924;-65
2022/12/08 11:35:33;;;;;;;;;;;18.00;98.70;;;;;;5028653;28;19972;-64
2022/12/08 11:38:10;;;;;;;;;;;18.00;99.00;;;;;;5047333;28;19912;-63
2022/12/08 11:40:38;;;;;;;;;;;18.00;98.80;;;;;;5046410;28;20379;-64
2022/12/08 11:43:22;;;;;;;;;;;18.00;98.90;;;;;;5047321;28;20011;-63
2022/12/08 11:45:50;;;;;;;;;;;18.00;98.90;;;;;;5046527;28;20375;-64
2022/12/08 11:48:18;;;;;;;;;;;18.00;99.00;;;;;;5047076;28;20286;-63
2022/12/08 11:50:52;;;;;;;;;;;18.00;99.00;;;;;;5046387;28;19921;-64
2022/12/08 11:53:39;;;;;;;;;;;17.90;99.10;;;;;;5046946;28;19994;-64
2022/12/08 11:56:23;;;;;;;;;;;17.90;98.90;;;;;;5002036;28;19923;-65
2022/12/08 11:58:53;;;;;;;;;;;17.90;99.10;;;;;;5046791;28;20260;-66
2022/12/08 12:01:22;;;;;;;;;;;17.90;98.70;;;;;;5045725;28;19920;-65
2022/12/08 12:04:08;;;;;;;;;;;17.90;98.80;;;;;;5046701;28;19971;-66
2022/12/08 12:06:46;;;;;;;;;;;17.90;98.70;;;;;;5044778;28;19962;-65
2022/12/08 12:09:12;;;;;;;;;;;17.90;98.50;;;;;;5045998;28;20272;-63
2022/12/08 12:14:46;;;;;;;;;;;17.90;98.80;;;;;;5046222;28;19939;-66
2022/12/08 12:17:31;;;;;;;;;;;17.90;98.60;;;;;;5045969;28;19955;-64
2022/12/08 12:20:02;;;;;;;;;;;17.90;98.60;;;;;;5045581;28;19913;-63
2022/12/08 12:22:32;;;;;;;;;;;17.90;98.50;;;;;;5045765;28;19916;-66
2022/12/08 12:24:59;;;;;;;;;;;17.90;98.70;;;;;;5046115;28;19913;-66
2022/12/08 12:27:32;;;;;;;;;;;17.80;98.90;;;;;;5044782;28;19973;-65
2022/12/08 12:30:05;;;;;;;;;;;17.80;98.80;;;;;;5051394;28;19959;-64
2022/12/08 12:32:46;;;;;;;;;;;17.80;99.00;;;;;;5053670;28;19916;-63
2022/12/08 12:35:15;;;;;;;;;;;17.80;99.00;;;;;;5054994;28;20007;-66
2022/12/08 12:37:42;;;;;;;;;;;17.80;99.30;;;;;;5052930;28;19909;-66
2022/12/08 12:40:12;;;;;;;;;;;17.80;99.30;;;;;;5053608;28;20015;-66
2022/12/08 12:42:38;;;;;;;;;;;17.90;99.50;;;;;;5054647;28;19915;-67
2022/12/08 12:45:16;;;;;;;;;;;17.90;99.50;;;;;;5053672;28;19917;-66
2022/12/08 12:47:55;;;;;;;;;;;17.90;99.40;;;;;;5054683;28;19917;-66
2022/12/08 12:50:35;;;;;;;;;;;17.90;99.60;;;;;;5053742;28;20248;-67
2022/12/08 12:53:17;;;;;;;;;;;17.90;99.70;;;;;;5053267;28;19920;-67
2022/12/08 12:55:58;;;;;;;;;;;18.00;99.70;;;;;;5054453;28;19952;-67
2022/12/08 12:58:27;;;;;;;;;;;18.00;99.90;;;;;;5053300;28;20350;-67
2022/12/08 13:01:12;;;;;;;;;;;18.00;99.90;;;;;;5054216;28;20279;-67
2022/12/08 13:03:46;;;;;;;;;;;17.90;99.90;;;;;;5053977;28;19913;-67
2022/12/08 13:06:14;;;;;;;;;;;17.90;99.90;;;;;;5053279;28;19943;-67
2022/12/08 13:08:49;;;;;;;;;;;17.70;99.90;;;;;;5054159;28;19908;-67
2022/12/08 13:11:15;;;;;;;;;;;17.80;99.90;;;;;;5052996;28;19917;-67
2022/12/08 13:14:02;;;;;;;;;;;17.80;99.90;;;;;;5054192;28;19917;-67
2022/12/08 13:16:33;;;;;;;;;;;17.90;99.90;;;;;;5053275;28;20367;-67
2022/12/08 13:19:03;;;;;;;;;;;18.00;99.90;;;;;;5053858;28;19963;-66
2022/12/08 13:21:35;;;;;;;;;;;18.00;99.90;;;;;;5052250;28;19951;-66
2022/12/08 13:24:19;;;;;;;;;;;18.10;99.90;;;;;;5053960;28;20326;-67
2022/12/08 13:26:47;;;;;;;;;;;18.00;99.90;;;;;;5052795;28;19909;-67
2022/12/08 13:29:19;;;;;;;;;;;18.00;99.90;;;;;;5052889;28;19959;-68
2022/12/08 13:31:47;;;;;;;;;;;18.00;99.90;;;;;;5053085;28;20371;-67
2022/12/08 13:34:24;;;;;;;;;;;18.00;99.90;;;;;;5033764;28;19971;-68
2022/12/08 13:37:09;;;;;;;;;;;18.00;99.90;;;;;;5044560;28;19967;-68
2022/12/08 13:39:39;;;;;;;;;;;18.00;99.90;;;;;;5053794;28;19909;-68
2022/12/08 13:42:12;;;;;;;;;;;18.00;99.90;;;;;;5052683;28;19919;-66
2022/12/08 13:44:38;;;;;;;;;;;18.00;99.90;;;;;;5053647;28;19956;-67
2022/12/08 13:47:06;;;;;;;;;;;17.90;99.90;;;;;;5051397;28;19943;-67
2022/12/08 13:49:40;;;;;;;;;;;17.90;99.90;;;;;;5053603;28;20003;-68
2022/12/08 13:52:15;;;;;;;;;;;17.90;99.90;;;;;;5051899;28;20364;-67
2022/12/08 13:54:42;;;;;;;;;;;17.90;99.90;;;;;;5053166;28;19917;-68
2022/12/08 13:57:25;;;;;;;;;;;18.00;99.90;;;;;;5051733;28;19921;-67
2022/12/08 13:59:51;;;;;;;;;;;17.90;99.90;;;;;;5053212;28;19909;-67
2022/12/08 14:02:34;;;;;;;;;;;17.90;99.90;;;;;;5052223;28;20311;-67
2022/12/08 14:05:01;;;;;;;;;;;17.80;99.90;;;;;;5052921;28;19909;-67
2022/12/08 14:07:28;;;;;;;;;;;17.90;99.90;;;;;;5052438;28;19913;-67
2022/12/08 14:09:54;;;;;;;;;;;17.80;99.90;;;;;;5053093;28;19959;-68
2022/12/08 14:12:23;;;;;;;;;;;17.80;99.90;;;;;;5052438;28;19913;-67
2022/12/08 14:15:04;;;;;;;;;;;17.80;99.90;;;;;;5052900;28;19976;-67
2022/12/08 14:17:32;;;;;;;;;;;17.90;99.90;;;;;;5051290;28;19913;-67
2022/12/08 14:20:18;;;;;;;;;;;17.90;99.90;;;;;;5053093;28;19909;-68
2022/12/08 14:22:45;;;;;;;;;;;17.90;99.90;;;;;;5051493;28;19920;-67
2022/12/08 14:25:16;;;;;;;;;;;17.80;99.90;;;;;;5051835;28;19958;-67
2022/12/08 14:27:43;;;;;;;;;;;17.80;99.90;;;;;;5051825;28;19913;-67
2022/12/08 14:30:13;;;;;;;;;;;17.70;99.90;;;;;;5053098;28;19908;-66
2022/12/08 14:32:50;;;;;;;;;;;17.80;99.90;;;;;;5052202;28;19958;-67
2022/12/08 14:35:25;;;;;;;;;;;17.60;99.90;;;;;;5053068;28;19954;-67